Time;durP1;ratioP1;P1;durP2;ratioP2;P2;SDS_P1;SDS_P2;PMS_P1;PMS_P2;Temp;Humidity;BMP_temperature;BMP_pressure;BME280_temperature;BME280_humidity;BME280_pressure;Samples;Min_cycle;Max_cycle;Signal;HPM_P1;HPM_P2
2022/01/02 00:00:00;;;;;;;10.40;7.40;;;12.00;99.90;;;;;;5013090;28;20243;-65
2022/01/02 00:02:28;;;;;;;12.68;7.03;;;12.00;99.90;;;;;;5012924;28;20045;-65
2022/01/02 00:05:01;;;;;;;12.52;7.78;;;11.90;99.90;;;;;;5012356;28;20037;-65
2022/01/02 00:07:30;;;;;;;14.95;8.13;;;11.90;99.90;;;;;;5012925;28;20056;-65
2022/01/02 00:10:03;;;;;;;12.00;7.05;;;11.80;99.90;;;;;;5012832;28;20038;-64
2022/01/02 00:12:34;;;;;;;13.18;7.78;;;11.80;99.90;;;;;;5012668;28;20118;-64
2022/01/02 00:15:04;;;;;;;11.52;7.55;;;11.80;99.90;;;;;;5012544;28;20468;-65
2022/01/02 00:17:30;;;;;;;12.30;7.80;;;11.80;99.90;;;;;;5012234;28;20041;-65
2022/01/02 00:19:58;;;;;;;11.60;7.47;;;11.80;99.90;;;;;;5012645;28;20041;-65
2022/01/02 00:22:34;;;;;;;14.20;8.57;;;11.80;99.90;;;;;;5012705;28;20188;-64
2022/01/02 00:25:04;;;;;;;12.73;7.93;;;11.80;99.90;;;;;;5012386;28;20050;-65
2022/01/02 00:27:31;;;;;;;14.15;7.28;;;11.80;99.90;;;;;;5012403;28;20043;-65
2022/01/02 00:29:58;;;;;;;16.45;8.70;;;11.80;99.90;;;;;;5012113;28;20042;-65
2022/01/02 00:32:23;;;;;;;12.85;7.90;;;11.80;99.90;;;;;;5012478;28;20038;-65
2022/01/02 00:34:51;;;;;;;13.57;6.97;;;11.80;99.90;;;;;;5012356;28;20378;-64
2022/01/02 00:37:17;;;;;;;11.45;7.88;;;11.80;99.90;;;;;;5012039;28;20049;-64
2022/01/02 00:39:43;;;;;;;12.80;7.53;;;11.80;99.90;;;;;;5011923;28;20042;-65
2022/01/02 00:42:21;;;;;;;11.82;7.10;;;11.70;99.90;;;;;;5012153;28;20034;-65
2022/01/02 00:45:15;;;;;;;13.40;7.50;;;11.80;99.90;;;;;;5010740;28;20172;-64
2022/01/02 00:47:49;;;;;;;12.98;6.90;;;11.80;99.90;;;;;;5062345;23;20047;-64
2022/01/02 00:50:19;;;;;;;15.10;7.97;;;11.70;99.90;;;;;;5031787;28;20107;-63
2022/01/02 00:52:47;;;;;;;13.45;8.05;;;11.70;99.90;;;;;;5031187;28;20052;-64
2022/01/02 00:55:14;;;;;;;13.15;7.72;;;11.70;99.90;;;;;;5031961;28;20048;-64
2022/01/02 00:57:42;;;;;;;12.50;7.40;;;11.70;99.90;;;;;;5031459;28;20378;-64
2022/01/02 01:00:17;;;;;;;14.05;7.80;;;11.70;99.90;;;;;;5031430;28;20660;-64
2022/01/02 01:02:52;;;;;;;16.17;7.75;;;11.60;99.90;;;;;;5031291;28;20037;-64
2022/01/02 01:05:24;;;;;;;12.90;8.02;;;11.70;99.90;;;;;;5029941;28;20045;-64
2022/01/02 01:07:53;;;;;;;15.85;7.63;;;11.70;99.90;;;;;;5030342;28;20060;-64
2022/01/02 01:10:20;;;;;;;12.60;7.40;;;11.70;99.90;;;;;;5031551;28;20041;-64
2022/01/02 01:12:50;;;;;;;15.52;8.15;;;11.70;99.90;;;;;;5031228;28;20052;-64
2022/01/02 01:15:16;;;;;;;13.02;7.82;;;11.70;99.90;;;;;;5031290;28;20559;-64
2022/01/02 01:17:41;;;;;;;13.18;7.70;;;11.70;99.90;;;;;;5031128;28;20041;-64
2022/01/02 01:20:12;;;;;;;14.50;7.97;;;11.70;99.90;;;;;;5029748;28;20120;-64
2022/01/02 01:22:39;;;;;;;15.05;8.93;;;11.70;99.90;;;;;;5030951;28;20041;-64
2022/01/02 01:25:07;;;;;;;12.80;7.97;;;11.70;99.90;;;;;;5030999;28;20037;-64
2022/01/02 01:27:33;;;;;;;14.23;8.15;;;11.70;99.90;;;;;;5031284;28;20117;-64
2022/01/02 01:29:59;;;;;;;10.88;7.43;;;11.70;99.90;;;;;;5030908;28;20049;-64
2022/01/02 01:32:24;;;;;;;14.93;8.05;;;11.70;99.90;;;;;;5030580;28;20045;-64
2022/01/02 01:34:50;;;;;;;17.08;8.15;;;11.70;99.90;;;;;;5030863;28;20575;-64
2022/01/02 01:37:15;;;;;;;11.38;6.50;;;11.70;99.90;;;;;;5030724;28;20404;-64
2022/01/02 01:39:41;;;;;;;17.48;8.00;;;11.70;99.90;;;;;;5030902;28;20033;-64
2022/01/02 01:42:10;;;;;;;17.42;8.82;;;11.70;99.90;;;;;;5030765;28;20052;-64
2022/01/02 01:47:24;;;;;;;11.60;6.70;;;11.70;99.90;;;;;;4983967;28;20456;-64
2022/01/02 01:49:50;;;;;;;17.85;8.52;;;11.60;99.90;;;;;;5030791;28;20041;-64
2022/01/02 01:52:15;;;;;;;12.88;8.55;;;11.70;99.90;;;;;;5030527;28;20040;-63
2022/01/02 01:54:41;;;;;;;16.70;8.55;;;11.60;99.90;;;;;;5030328;28;20049;-64
2022/01/02 01:57:06;;;;;;;14.38;8.23;;;11.60;99.90;;;;;;5030404;28;20049;-63
2022/01/02 01:59:32;;;;;;;13.30;8.35;;;11.60;99.90;;;;;;5030216;28;20044;-64
2022/01/02 02:01:58;;;;;;;16.02;8.77;;;11.70;99.90;;;;;;5030734;28;20124;-64
2022/01/02 02:04:23;;;;;;;17.23;8.55;;;11.70;99.90;;;;;;5030061;28;20183;-64
2022/01/02 02:06:49;;;;;;;14.25;8.35;;;11.70;99.90;;;;;;5030277;28;20048;-64
2022/01/02 02:09:14;;;;;;;15.80;8.70;;;11.70;99.90;;;;;;5030330;28;20043;-64
2022/01/02 02:11:40;;;;;;;16.33;8.40;;;11.70;99.90;;;;;;5030444;28;20040;-64
2022/01/02 02:14:07;;;;;;;14.13;7.72;;;11.70;99.90;;;;;;5029856;28;20045;-63
2022/01/02 02:16:35;;;;;;;14.60;8.68;;;11.70;99.90;;;;;;5029836;28;20040;-64
2022/01/02 02:19:02;;;;;;;12.73;7.55;;;11.70;99.90;;;;;;5030173;28;20049;-64
2022/01/02 02:21:35;;;;;;;16.67;9.80;;;11.70;99.90;;;;;;5030317;28;20042;-64
2022/01/02 02:24:04;;;;;;;14.95;8.60;;;11.70;99.90;;;;;;5029884;28;20049;-63
2022/01/02 02:26:32;;;;;;;17.40;8.73;;;11.70;99.90;;;;;;5029743;28;20454;-64
2022/01/02 02:28:59;;;;;;;14.93;8.75;;;11.70;99.90;;;;;;5030087;28;20051;-64
2022/01/02 02:31:24;;;;;;;15.38;8.38;;;11.70;99.90;;;;;;5030151;28;20041;-64
2022/01/02 02:33:50;;;;;;;14.48;9.05;;;11.70;99.90;;;;;;5029846;28;20107;-64
2022/01/02 02:36:16;;;;;;;18.02;8.85;;;11.70;99.90;;;;;;5028552;28;20455;-64
2022/01/02 02:38:42;;;;;;;16.35;8.50;;;11.60;99.90;;;;;;5029783;28;20081;-64
2022/01/02 02:41:07;;;;;;;18.75;8.73;;;11.70;99.90;;;;;;5029643;28;20041;-63
2022/01/02 02:44:20;;;;;;;16.83;8.35;;;11.60;99.90;;;;;;5029834;28;20033;-63
2022/01/02 02:49:06;;;;;;;14.52;8.18;;;11.60;99.90;;;;;;5029770;28;20096;-64
2022/01/02 02:51:44;;;;;;;16.67;8.32;;;11.60;99.90;;;;;;5029596;28;20037;-64
2022/01/02 02:54:16;;;;;;;17.40;8.52;;;11.60;99.90;;;;;;5029625;28;20112;-64
2022/01/02 02:56:58;;;;;;;16.35;8.90;;;11.60;99.90;;;;;;5028655;28;20484;-63
2022/01/02 02:59:26;;;;;;;16.80;8.93;;;11.60;99.90;;;;;;5029722;28;20093;-64
2022/01/02 03:01:52;;;;;;;17.85;8.75;;;11.60;99.90;;;;;;5029553;28;20112;-64
2022/01/02 03:04:19;;;;;;;17.05;8.50;;;11.60;99.90;;;;;;5029424;28;20046;-64
2022/01/02 03:06:45;;;;;;;15.23;8.25;;;11.60;99.90;;;;;;5029955;28;20055;-64
2022/01/02 03:09:11;;;;;;;17.50;8.48;;;11.60;99.90;;;;;;5029952;28;20132;-63
2022/01/02 03:11:39;;;;;;;15.65;7.95;;;11.50;99.90;;;;;;5029886;28;20037;-63
2022/01/02 03:14:06;;;;;;;16.23;9.45;;;11.50;99.90;;;;;;5029688;28;20125;-64
2022/01/02 03:16:32;;;;;;;17.20;9.38;;;11.50;99.90;;;;;;5029501;28;20112;-64
2022/01/02 03:18:58;;;;;;;18.48;8.63;;;11.50;99.90;;;;;;5029750;28;20113;-64
2022/01/02 03:21:24;;;;;;;15.63;8.02;;;11.50;99.90;;;;;;5028568;28;20099;-63
2022/01/02 03:23:50;;;;;;;16.58;9.20;;;11.50;99.90;;;;;;5029443;28;20497;-63
2022/01/02 03:26:16;;;;;;;14.73;8.07;;;11.50;99.90;;;;;;5029776;28;20064;-63
2022/01/02 03:28:42;;;;;;;18.83;9.00;;;11.50;99.90;;;;;;5031029;28;20107;-64
2022/01/02 03:31:07;;;;;;;15.23;8.35;;;11.50;99.90;;;;;;5033023;28;20041;-64
2022/01/02 03:33:33;;;;;;;14.48;8.60;;;11.50;99.90;;;;;;5033155;28;20045;-65
2022/01/02 03:35:59;;;;;;;19.15;8.90;;;11.50;99.90;;;;;;5033418;28;20089;-64
2022/01/02 03:38:26;;;;;;;18.52;9.18;;;11.50;99.90;;;;;;5033044;28;20514;-64
2022/01/02 03:40:52;;;;;;;16.88;8.13;;;11.50;99.90;;;;;;5033010;28;20036;-64
2022/01/02 03:43:17;;;;;;;18.05;8.70;;;11.50;99.90;;;;;;5032764;28;20033;-64
2022/01/02 03:45:43;;;;;;;15.38;8.23;;;11.50;99.90;;;;;;5032870;28;20041;-64
2022/01/02 03:48:08;;;;;;;16.13;8.10;;;11.50;99.90;;;;;;5032633;28;20390;-64
2022/01/02 03:50:34;;;;;;;17.50;8.68;;;11.50;99.90;;;;;;5033028;28;20405;-64
2022/01/02 03:53:00;;;;;;;14.15;7.88;;;11.50;99.90;;;;;;5032653;28;20033;-64
2022/01/02 03:55:25;;;;;;;18.65;8.57;;;11.50;99.90;;;;;;5032865;28;20505;-64
2022/01/02 03:57:51;;;;;;;18.63;8.05;;;11.50;99.90;;;;;;5032893;28;20053;-64
2022/01/02 04:00:18;;;;;;;12.68;7.30;;;11.50;99.90;;;;;;5032574;28;20463;-64
2022/01/02 04:02:44;;;;;;;20.67;10.10;;;11.40;99.90;;;;;;5032540;28;20116;-64
2022/01/02 04:05:12;;;;;;;17.38;9.43;;;11.40;99.90;;;;;;5032647;28;20128;-64
2022/01/02 04:07:38;;;;;;;18.42;8.15;;;11.40;99.90;;;;;;5032761;28;20041;-64
2022/01/02 04:10:06;;;;;;;15.40;9.02;;;11.50;99.90;;;;;;5032831;28;20034;-64
2022/01/02 04:12:33;;;;;;;16.50;8.65;;;11.40;99.90;;;;;;5030910;28;20037;-64
2022/01/02 04:14:58;;;;;;;21.42;8.65;;;11.40;99.90;;;;;;5032217;28;20037;-64
2022/01/02 04:17:24;;;;;;;16.42;7.82;;;11.40;99.90;;;;;;5032272;28;20068;-64
2022/01/02 04:19:50;;;;;;;16.38;8.80;;;11.40;99.90;;;;;;5032599;28;20046;-63
2022/01/02 04:22:16;;;;;;;14.05;8.45;;;11.50;99.90;;;;;;5031844;28;20375;-63
2022/01/02 04:24:42;;;;;;;15.82;8.93;;;11.50;99.90;;;;;;5032039;28;20045;-63
2022/01/02 04:27:08;;;;;;;17.65;8.60;;;11.50;99.90;;;;;;5032086;28;20056;-63
2022/01/02 04:29:33;;;;;;;14.23;8.90;;;11.50;99.90;;;;;;5032031;28;20029;-63
2022/01/02 04:31:59;;;;;;;17.23;8.07;;;11.50;99.90;;;;;;5032383;28;20658;-63
2022/01/02 04:34:24;;;;;;;20.23;9.40;;;11.60;99.90;;;;;;5031808;28;20037;-64
2022/01/02 04:36:50;;;;;;;15.30;8.27;;;11.60;99.90;;;;;;5032027;28;20052;-63
2022/01/02 04:39:15;;;;;;;17.23;8.10;;;11.60;99.90;;;;;;5031716;28;20041;-63
2022/01/02 04:41:41;;;;;;;18.00;8.20;;;11.60;99.90;;;;;;5031849;28;20116;-63
2022/01/02 04:44:06;;;;;;;16.20;7.55;;;11.70;99.90;;;;;;5031362;28;20568;-64
2022/01/02 04:46:32;;;;;;;17.35;7.95;;;11.70;99.90;;;;;;5031811;28;20038;-63
2022/01/02 04:48:58;;;;;;;16.33;7.80;;;11.70;99.90;;;;;;5031542;28;20040;-64
2022/01/02 04:51:23;;;;;;;17.15;7.82;;;11.70;99.90;;;;;;5030531;28;20764;-64
2022/01/02 04:53:49;;;;;;;14.50;7.78;;;11.70;99.90;;;;;;5031500;28;20042;-63
2022/01/02 04:56:17;;;;;;;15.13;6.93;;;11.80;99.90;;;;;;5031610;28;20049;-64
2022/01/02 04:58:43;;;;;;;12.63;6.88;;;11.90;99.90;;;;;;5031297;28;20087;-63
2022/01/02 05:01:14;;;;;;;14.85;7.20;;;11.90;99.90;;;;;;5031465;28;20456;-63
2022/01/02 05:03:43;;;;;;;13.10;6.57;;;12.00;99.90;;;;;;5031559;28;20076;-63
2022/01/02 05:06:09;;;;;;;14.15;6.85;;;12.00;99.90;;;;;;5031449;28;20040;-64
2022/01/02 05:08:35;;;;;;;20.27;6.50;;;12.00;99.90;;;;;;5031375;28;20478;-63
2022/01/02 05:11:01;;;;;;;15.80;6.38;;;12.10;99.90;;;;;;5031253;28;20533;-64
2022/01/02 05:13:27;;;;;;;21.55;7.00;;;12.20;99.90;;;;;;5031199;28;20044;-63
2022/01/02 05:15:52;;;;;;;13.18;6.13;;;12.20;99.90;;;;;;5031417;28;20030;-64
2022/01/02 05:18:18;;;;;;;17.63;6.38;;;12.20;99.90;;;;;;5031041;28;20528;-64
2022/01/02 05:20:46;;;;;;;16.30;6.97;;;12.20;99.90;;;;;;5031241;28;20041;-64
2022/01/02 05:23:13;;;;;;;15.13;5.85;;;12.30;99.90;;;;;;5031085;28;20033;-64
2022/01/02 05:25:39;;;;;;;14.82;6.32;;;12.40;99.90;;;;;;5030931;28;20038;-64
2022/01/02 05:28:04;;;;;;;13.52;5.63;;;12.40;99.90;;;;;;5031064;28;20040;-64
2022/01/02 05:30:30;;;;;;;13.63;5.85;;;12.40;99.90;;;;;;5030887;28;20577;-64
2022/01/02 05:32:55;;;;;;;9.90;5.25;;;12.40;99.90;;;;;;5029528;28;20076;-64
2022/01/02 05:35:21;;;;;;;15.30;5.85;;;12.50;99.90;;;;;;5030984;28;20410;-64
2022/01/02 05:37:46;;;;;;;12.63;5.63;;;12.50;99.90;;;;;;5030678;28;20493;-64
2022/01/02 05:40:12;;;;;;;13.02;5.03;;;12.60;99.90;;;;;;5030625;28;20125;-64
2022/01/02 05:42:37;;;;;;;19.48;6.32;;;12.60;99.90;;;;;;5030503;28;20037;-64
2022/01/02 05:45:03;;;;;;;13.98;5.25;;;12.70;99.90;;;;;;5030830;28;20433;-64
2022/01/02 05:47:29;;;;;;;14.50;5.00;;;12.70;99.90;;;;;;5030607;28;20511;-64
2022/01/02 05:49:54;;;;;;;13.63;4.57;;;12.80;99.90;;;;;;5030516;28;20033;-64
2022/01/02 05:52:20;;;;;;;15.82;4.88;;;12.80;99.90;;;;;;5029737;28;20064;-64
2022/01/02 05:54:45;;;;;;;15.13;4.70;;;12.80;99.90;;;;;;5030402;28;20409;-64
2022/01/02 05:57:11;;;;;;;12.75;5.20;;;12.80;99.90;;;;;;5030257;28;20731;-63
2022/01/02 05:59:39;;;;;;;12.27;4.13;;;12.90;99.90;;;;;;5030437;28;20037;-64
2022/01/02 06:02:04;;;;;;;12.80;4.72;;;12.90;99.90;;;;;;5030533;28;20091;-64
2022/01/02 06:04:30;;;;;;;13.35;5.30;;;12.90;99.90;;;;;;5030135;28;20461;-65
2022/01/02 06:06:55;;;;;;;16.52;4.95;;;12.90;99.90;;;;;;5030261;28;20037;-64
2022/01/02 06:09:21;;;;;;;16.02;4.90;;;12.80;99.90;;;;;;5030421;28;20133;-64
2022/01/02 06:11:46;;;;;;;9.30;4.30;;;12.80;99.90;;;;;;5030065;28;20072;-64
2022/01/02 06:14:12;;;;;;;12.43;5.00;;;12.80;99.90;;;;;;5030115;28;20038;-64
2022/01/02 06:16:37;;;;;;;12.30;4.70;;;12.90;99.90;;;;;;5030204;28;20629;-64
2022/01/02 06:19:03;;;;;;;12.82;4.28;;;12.90;99.90;;;;;;5030324;28;20112;-64
2022/01/02 06:21:28;;;;;;;10.32;4.60;;;12.90;99.90;;;;;;5029959;28;20083;-64
2022/01/02 06:23:54;;;;;;;12.10;4.72;;;12.80;99.90;;;;;;5029654;28;20073;-64
2022/01/02 06:26:19;;;;;;;13.43;4.90;;;12.80;99.90;;;;;;5028074;28;20045;-64
2022/01/02 06:28:45;;;;;;;15.98;5.22;;;12.90;99.90;;;;;;5026886;28;20045;-64
2022/01/02 06:31:11;;;;;;;9.55;4.88;;;12.80;99.90;;;;;;5026933;28;20041;-64
2022/01/02 06:33:37;;;;;;;13.13;5.20;;;12.80;99.90;;;;;;5026905;28;20041;-64
2022/01/02 06:36:03;;;;;;;15.38;5.18;;;12.70;99.90;;;;;;5026864;28;20053;-64
2022/01/02 06:38:28;;;;;;;11.38;5.07;;;12.70;99.90;;;;;;5026437;28;20038;-65
2022/01/02 06:40:54;;;;;;;11.30;5.15;;;12.70;99.90;;;;;;5026861;28;20453;-64
2022/01/02 06:43:20;;;;;;;11.05;4.93;;;12.70;99.90;;;;;;5026650;28;20053;-64
2022/01/02 06:45:46;;;;;;;13.35;4.80;;;12.70;99.90;;;;;;5027051;28;20045;-64
2022/01/02 06:48:12;;;;;;;14.23;5.38;;;12.70;99.90;;;;;;5026608;28;20469;-64
2022/01/02 06:50:39;;;;;;;14.65;5.70;;;12.70;99.90;;;;;;5026571;28;20041;-64
2022/01/02 06:53:05;;;;;;;9.38;4.88;;;12.60;99.90;;;;;;5026506;28;20106;-64
2022/01/02 06:55:30;;;;;;;11.82;4.90;;;12.60;99.90;;;;;;5026718;28;20041;-64
2022/01/02 06:57:56;;;;;;;13.63;5.72;;;12.60;99.90;;;;;;5026425;28;20501;-64
2022/01/02 07:00:21;;;;;;;12.00;4.95;;;12.60;99.90;;;;;;5026757;28;20060;-63
2022/01/02 07:02:47;;;;;;;13.18;4.93;;;12.60;99.90;;;;;;5028245;28;20528;-64
2022/01/02 07:05:12;;;;;;;9.05;5.50;;;12.60;99.90;;;;;;5030431;28;20715;-64
2022/01/02 07:07:42;;;;;;;10.70;5.70;;;12.60;99.90;;;;;;5030460;28;20029;-64
2022/01/02 07:10:11;;;;;;;10.82;5.35;;;12.60;99.90;;;;;;5030677;28;20571;-64
2022/01/02 07:12:37;;;;;;;13.23;5.53;;;12.50;99.90;;;;;;5030454;28;20661;-64
2022/01/02 07:15:04;;;;;;;11.95;5.38;;;12.40;99.90;;;;;;5030195;28;20045;-64
2022/01/02 07:17:30;;;;;;;12.25;6.28;;;12.50;99.90;;;;;;5029247;28;20057;-64
2022/01/02 07:19:56;;;;;;;14.13;6.00;;;12.40;99.90;;;;;;5029308;28;20056;-64
2022/01/02 07:22:21;;;;;;;14.45;6.07;;;12.40;99.90;;;;;;5030509;28;20073;-64
2022/01/02 07:24:51;;;;;;;16.23;6.70;;;12.40;99.90;;;;;;5030401;28;20083;-64
2022/01/02 07:27:17;;;;;;;17.13;6.07;;;12.40;99.90;;;;;;5030055;28;20402;-64
2022/01/02 07:29:43;;;;;;;13.70;5.22;;;12.40;99.90;;;;;;5029126;28;20049;-64
2022/01/02 07:32:08;;;;;;;15.27;6.32;;;12.40;99.90;;;;;;5030605;28;20033;-64
2022/01/02 07:34:34;;;;;;;17.83;6.95;;;12.30;99.90;;;;;;5030100;28;20057;-64
2022/01/02 07:36:59;;;;;;;16.52;6.53;;;12.30;99.90;;;;;;5029982;28;20048;-64
2022/01/02 07:39:25;;;;;;;12.75;6.22;;;12.30;99.90;;;;;;5030057;28;20836;-64
2022/01/02 07:41:50;;;;;;;11.43;5.97;;;12.30;99.90;;;;;;5030173;28;20069;-64
2022/01/02 07:44:16;;;;;;;11.00;5.60;;;12.30;99.90;;;;;;5029987;28;20052;-64
2022/01/02 07:46:42;;;;;;;13.35;6.50;;;12.30;99.90;;;;;;5029752;28;20095;-64
2022/01/02 07:49:07;;;;;;;13.23;6.53;;;12.30;99.90;;;;;;5030293;23;20075;-64
2022/01/02 07:51:33;;;;;;;14.52;6.18;;;12.30;99.90;;;;;;5031710;28;20404;-64
2022/01/02 07:54:00;;;;;;;13.25;6.30;;;12.30;99.90;;;;;;5032157;28;20044;-64
2022/01/02 07:56:26;;;;;;;13.23;6.57;;;12.30;99.90;;;;;;5032901;28;20048;-64
2022/01/02 07:58:51;;;;;;;14.10;6.20;;;12.30;99.90;;;;;;5032602;28;20030;-64
2022/01/02 08:01:18;;;;;;;11.73;5.72;;;12.20;99.90;;;;;;5032645;28;20034;-64
2022/01/02 08:03:43;;;;;;;13.10;6.45;;;12.30;99.90;;;;;;5032427;28;20096;-64
2022/01/02 08:06:09;;;;;;;13.65;6.20;;;12.30;99.90;;;;;;5032526;28;20053;-63
2022/01/02 08:08:34;;;;;;;9.38;5.95;;;12.30;99.90;;;;;;5032621;28;20060;-64
2022/01/02 08:11:00;;;;;;;10.98;5.57;;;12.30;99.90;;;;;;5032658;28;20503;-64
2022/01/02 08:13:25;;;;;;;10.95;5.45;;;12.40;99.90;;;;;;5031933;28;20502;-63
2022/01/02 08:15:51;;;;;;;10.27;6.10;;;12.40;99.90;;;;;;5032162;28;20041;-64
2022/01/02 08:18:17;;;;;;;13.07;6.18;;;12.30;99.90;;;;;;5032274;28;20037;-64
2022/01/02 08:20:45;;;;;;;11.32;5.85;;;12.30;99.90;;;;;;5032144;28;20072;-65
2022/01/02 08:23:12;;;;;;;10.43;5.82;;;12.20;99.90;;;;;;5032231;28;20515;-64
2022/01/02 08:25:37;;;;;;;10.15;6.00;;;12.20;99.90;;;;;;5032348;28;20100;-64
2022/01/02 08:28:03;;;;;;;14.93;5.50;;;12.10;99.90;;;;;;5032285;28;20095;-64
2022/01/02 08:30:29;;;;;;;8.05;5.32;;;12.20;99.90;;;;;;5032154;28;20521;-64
2022/01/02 08:32:55;;;;;;;13.05;5.78;;;12.20;99.90;;;;;;5031881;28;20044;-64
2022/01/02 08:35:20;;;;;;;11.02;5.18;;;12.20;99.90;;;;;;5031842;28;20485;-64
2022/01/02 08:37:46;;;;;;;14.90;5.75;;;12.20;99.90;;;;;;5032065;28;20049;-63
2022/01/02 08:40:11;;;;;;;12.45;5.75;;;12.20;99.90;;;;;;5031954;28;20037;-64
2022/01/02 08:42:37;;;;;;;13.68;5.90;;;12.20;99.90;;;;;;5031761;28;20124;-64
2022/01/02 08:45:03;;;;;;;12.13;5.50;;;12.20;99.90;;;;;;5030577;28;20125;-64
2022/01/02 08:47:30;;;;;;;8.73;4.72;;;12.20;99.90;;;;;;5031883;28;20045;-64
2022/01/02 08:49:56;;;;;;;10.80;4.88;;;12.20;99.90;;;;;;5031388;28;20640;-64
2022/01/02 08:52:22;;;;;;;13.27;5.43;;;12.30;99.90;;;;;;5031819;28;20048;-64
2022/01/02 08:54:47;;;;;;;11.77;4.97;;;12.30;99.90;;;;;;5031641;28;20126;-64
2022/01/02 08:57:13;;;;;;;10.70;5.00;;;12.40;99.90;;;;;;5031817;28;20092;-64
2022/01/02 08:59:39;;;;;;;14.27;5.20;;;12.50;99.90;;;;;;5031733;28;20033;-64
2022/01/02 09:02:05;;;;;;;9.52;4.20;;;12.50;99.90;;;;;;5031571;28;20064;-64
2022/01/02 09:04:31;;;;;;;9.70;4.82;;;12.50;99.90;;;;;;5031024;28;20436;-64
2022/01/02 09:06:57;;;;;;;13.25;5.50;;;12.40;99.90;;;;;;5031666;28;20100;-64
2022/01/02 09:09:24;;;;;;;9.95;4.70;;;12.40;99.90;;;;;;5031636;28;20045;-64
2022/01/02 09:11:53;;;;;;;9.35;5.32;;;12.40;99.90;;;;;;5031482;28;20390;-64
2022/01/02 09:14:19;;;;;;;10.57;5.28;;;12.40;99.90;;;;;;5031080;28;20044;-64
2022/01/02 09:16:45;;;;;;;10.02;4.78;;;12.40;99.90;;;;;;5031253;28;20033;-64
2022/01/02 09:19:12;;;;;;;10.18;5.07;;;12.40;99.90;;;;;;5031025;28;20044;-64
2022/01/02 09:21:37;;;;;;;13.98;6.13;;;12.40;99.90;;;;;;5031351;28;20076;-63
2022/01/02 09:24:04;;;;;;;11.18;4.93;;;12.40;99.90;;;;;;5012340;28;20490;-63
2022/01/02 09:26:30;;;;;;;8.48;4.63;;;12.40;99.90;;;;;;5010306;28;20041;-64
2022/01/02 09:28:56;;;;;;;8.23;4.70;;;12.30;99.90;;;;;;5011324;28;20038;-64
2022/01/02 09:31:22;;;;;;;9.85;5.00;;;12.40;99.90;;;;;;5011283;28;20044;-64
2022/01/02 09:33:48;;;;;;;9.35;5.55;;;12.30;99.90;;;;;;5010692;28;20089;-64
2022/01/02 09:36:14;;;;;;;12.07;5.63;;;12.30;99.90;;;;;;5011299;28;20125;-64
2022/01/02 09:38:39;;;;;;;8.65;5.20;;;12.40;99.90;;;;;;5011117;28;20045;-64
2022/01/02 09:41:05;;;;;;;8.80;4.55;;;12.30;99.90;;;;;;5011193;28;20493;-64
2022/01/02 09:43:31;;;;;;;11.40;5.20;;;12.40;99.90;;;;;;5010661;28;20077;-64
2022/01/02 09:45:58;;;;;;;10.15;5.28;;;12.40;99.90;;;;;;5010755;28;20128;-64
2022/01/02 09:48:24;;;;;;;14.25;5.65;;;12.40;99.90;;;;;;5010480;28;20525;-64
2022/01/02 09:50:51;;;;;;;11.55;5.43;;;12.30;99.90;;;;;;5010749;28;20045;-64
2022/01/02 09:53:17;;;;;;;12.38;5.05;;;12.30;99.90;;;;;;5010666;28;20041;-63
2022/01/02 09:55:43;;;;;;;9.48;4.85;;;12.40;99.90;;;;;;5010704;28;20176;-64
2022/01/02 09:58:12;;;;;;;10.88;5.45;;;12.40;99.90;;;;;;5010746;28;20042;-63
2022/01/02 10:00:40;;;;;;;8.95;4.40;;;12.30;99.90;;;;;;5010611;28;20046;-63
2022/01/02 10:03:08;;;;;;;10.13;4.90;;;12.30;99.90;;;;;;5010625;28;20076;-63
2022/01/02 10:05:50;;;;;;;8.55;5.10;;;12.40;99.90;;;;;;5010702;28;20049;-64
2022/01/02 10:08:28;;;;;;;11.27;5.97;;;12.40;99.90;;;;;;5009278;28;20712;-64
2022/01/02 10:11:15;;;;;;;11.23;5.07;;;12.40;99.90;;;;;;5010767;28;20038;-64
2022/01/02 10:13:46;;;;;;;10.43;5.68;;;12.50;99.90;;;;;;5010526;28;20048;-64
2022/01/02 10:16:30;;;;;;;11.57;5.53;;;12.50;99.90;;;;;;5010643;28;20591;-64
2022/01/02 10:18:57;;;;;;;10.40;5.72;;;12.50;99.90;;;;;;5010448;28;20165;-64
2022/01/02 10:21:37;;;;;;;11.82;6.18;;;12.50;99.90;;;;;;5010642;28;20045;-64
2022/01/02 10:24:21;;;;;;;9.80;5.85;;;12.60;99.90;;;;;;5010196;28;20133;-64
2022/01/02 10:27:05;;;;;;;10.98;5.80;;;12.60;99.90;;;;;;5010425;28;20117;-64
2022/01/02 10:29:40;;;;;;;10.05;5.90;;;12.60;99.90;;;;;;5010217;28;20044;-64
2022/01/02 10:32:24;;;;;;;11.60;5.50;;;12.60;99.90;;;;;;5010218;28;20041;-63
2022/01/02 10:34:51;;;;;;;9.50;6.03;;;12.60;99.90;;;;;;5010292;28;20132;-64
2022/01/02 10:37:26;;;;;;;11.13;5.72;;;12.60;99.90;;;;;;5009834;28;20034;-63
2022/01/02 10:39:52;;;;;;;10.02;6.20;;;12.70;99.90;;;;;;5010159;28;20084;-63
2022/01/02 10:42:19;;;;;;;12.85;6.40;;;12.70;99.90;;;;;;5010195;28;20044;-63
2022/01/02 10:44:45;;;;;;;12.48;5.97;;;12.70;99.90;;;;;;5009771;28;20119;-63
2022/01/02 10:47:16;;;;;;;15.80;5.80;;;12.70;99.90;;;;;;5010071;28;20057;-64
2022/01/02 10:50:07;;;;;;;9.23;6.03;;;12.70;99.90;;;;;;5010002;28;20033;-63
2022/01/02 10:52:34;;;;;;;11.50;5.63;;;12.70;99.90;;;;;;5004674;28;20679;-64
2022/01/02 10:55:05;;;;;;;10.48;5.93;;;12.80;99.90;;;;;;5009793;28;20600;-64
2022/01/02 10:57:31;;;;;;;;;;;12.80;99.90;;;;;;5010676;28;20093;-63
2022/01/02 10:59:59;;;;;;;9.43;5.68;;;12.90;99.90;;;;;;5009909;28;19924;-64
2022/01/02 11:02:25;;;;;;;11.88;6.28;;;12.90;99.90;;;;;;5010258;28;20152;-63
2022/01/02 11:04:58;;;;;;;12.57;6.85;;;12.90;99.90;;;;;;5008672;28;20058;-63
2022/01/02 11:07:25;;;;;;;12.07;6.63;;;12.80;99.90;;;;;;5009614;28;20036;-63
2022/01/02 11:09:55;;;;;;;11.98;6.93;;;12.90;99.90;;;;;;5010010;28;20033;-63
2022/01/02 11:12:22;;;;;;;11.83;6.70;;;12.80;99.90;;;;;;5010125;28;20034;-63
2022/01/02 11:14:49;;;;;;;10.52;6.80;;;12.80;99.90;;;;;;5010011;28;20041;-63
2022/01/02 11:17:16;;;;;;;11.40;6.45;;;12.80;99.90;;;;;;5009833;28;20084;-63
2022/01/02 11:19:42;;;;;;;12.93;7.20;;;12.80;99.90;;;;;;5009667;28;20038;-63
2022/01/02 11:22:13;;;;;;;21.00;6.72;;;12.70;99.90;;;;;;5009560;28;20096;-63
2022/01/02 11:24:57;;;;;;;13.90;7.10;;;12.70;99.90;;;;;;5009828;28;20046;-63
2022/01/02 11:27:30;;;;;;;14.85;7.45;;;12.70;99.90;;;;;;5009509;28;20457;-63
2022/01/02 11:29:57;;;;;;;13.05;7.68;;;12.80;99.90;;;;;;5009904;28;20038;-63
2022/01/02 11:32:25;;;;;;;12.52;7.13;;;12.80;99.90;;;;;;5008261;28;20045;-63
2022/01/02 11:34:51;;;;;;;14.98;7.78;;;12.80;99.90;;;;;;5009612;28;20038;-63
2022/01/02 11:37:27;;;;;;;12.77;7.20;;;12.80;99.90;;;;;;5008870;28;20046;-63
2022/01/02 11:40:04;;;;;;;13.57;6.97;;;12.80;99.90;;;;;;5009573;28;20037;-63
2022/01/02 11:42:37;;;;;;;12.18;7.05;;;12.80;99.90;;;;;;5008094;28;20046;-63
2022/01/02 11:45:06;;;;;;;10.73;6.90;;;12.80;99.90;;;;;;5009558;28;20099;-63
2022/01/02 11:47:39;;;;;;;12.80;6.60;;;12.80;99.90;;;;;;5009751;28;20051;-63
2022/01/02 11:50:25;;;;;;;11.27;6.70;;;12.80;99.90;;;;;;5010285;28;20456;-63
2022/01/02 11:53:09;;;;;;;16.65;7.15;;;12.80;99.90;;;;;;5012556;28;20120;-63
2022/01/02 11:55:35;;;;;;;13.50;7.10;;;12.80;99.90;;;;;;5013030;28;20117;-63
2022/01/02 11:58:00;;;;;;;12.20;6.93;;;12.70;99.90;;;;;;5013131;28;20113;-63
2022/01/02 12:00:41;;;;;;;13.85;7.07;;;12.80;99.90;;;;;;5013205;28;20038;-63
2022/01/02 12:03:45;;;;;;;10.77;6.63;;;12.80;99.90;;;;;;5012773;28;20042;-63
2022/01/02 12:06:34;;;;;;;12.18;6.78;;;12.90;99.90;;;;;;5013154;28;20046;-64
2022/01/02 12:09:02;;;;;;;11.60;6.60;;;12.80;99.90;;;;;;5012853;28;20073;-63
2022/01/02 12:11:31;;;;;;;13.25;7.20;;;12.80;99.90;;;;;;5012801;28;20045;-64
2022/01/02 12:14:23;;;;;;;11.40;6.60;;;12.80;99.90;;;;;;5012373;28;20037;-65
2022/01/02 12:16:57;;;;;;;11.80;7.03;;;12.80;99.90;;;;;;5010818;28;20168;-64
2022/01/02 12:19:23;;;;;;;12.40;7.22;;;12.80;99.90;;;;;;5012573;28;20417;-64
2022/01/02 12:22:15;;;;;;;12.68;6.43;;;12.80;99.90;;;;;;5012457;28;20036;-64
2022/01/02 12:24:42;;;;;;;13.85;6.43;;;12.90;99.90;;;;;;5010924;28;20129;-64
2022/01/02 12:27:16;;;;;;;11.25;6.65;;;12.90;99.90;;;;;;5012588;28;20397;-64
2022/01/02 12:29:43;;;;;;;11.05;6.30;;;13.00;99.90;;;;;;5012232;28;20045;-64
2022/01/02 12:32:10;;;;;;;10.07;6.53;;;13.00;99.90;;;;;;5012242;28;20526;-64
2022/01/02 12:34:36;;;;;;;14.15;6.63;;;13.00;99.90;;;;;;5009709;28;20042;-65
2022/01/02 12:37:03;;;;;;;8.80;5.70;;;12.90;99.90;;;;;;5011327;28;20095;-64
2022/01/02 12:39:40;;;;;;;15.45;6.43;;;12.90;99.90;;;;;;5011271;28;20042;-65
2022/01/02 12:42:14;;;;;;;13.43;5.93;;;12.90;99.90;;;;;;5010681;28;20081;-65
2022/01/02 12:44:41;;;;;;;13.82;5.75;;;12.90;99.90;;;;;;5011457;28;20048;-64
2022/01/02 12:47:12;;;;;;;13.30;6.35;;;12.90;99.90;;;;;;5011671;28;20042;-65